sensor_id;sensor_type;location;lat;lon;timestamp;P1;durP1;ratioP1;P2;durP2;ratioP2
67508;SDS011;54354;44.724;11.284;2023-02-19T00:01:26;142.23;;;77.10;;
67508;SDS011;54354;44.724;11.284;2023-02-19T00:03:54;143.63;;;79.50;;
67508;SDS011;54354;44.724;11.284;2023-02-19T00:06:22;146.10;;;79.45;;
67508;SDS011;54354;44.724;11.284;2023-02-19T00:08:49;150.52;;;80.85;;
67508;SDS011;54354;44.724;11.284;2023-02-19T00:11:19;142.90;;;79.50;;
67508;SDS011;54354;44.724;11.284;2023-02-19T00:13:48;140.68;;;77.03;;
67508;SDS011;54354;44.724;11.284;2023-02-19T00:18:42;141.05;;;76.45;;
67508;SDS011;54354;44.724;11.284;2023-02-19T00:21:08;140.32;;;74.60;;
67508;SDS011;54354;44.724;11.284;2023-02-19T00:23:34;136.25;;;74.35;;
67508;SDS011;54354;44.724;11.284;2023-02-19T00:26:03;136.93;;;75.97;;
67508;SDS011;54354;44.724;11.284;2023-02-19T00:30:55;124.05;;;70.93;;
67508;SDS011;54354;44.724;11.284;2023-02-19T00:33:27;116.63;;;69.05;;
67508;SDS011;54354;44.724;11.284;2023-02-19T00:35:53;114.70;;;67.20;;
67508;SDS011;54354;44.724;11.284;2023-02-19T00:38:19;115.82;;;66.63;;
67508;SDS011;54354;44.724;11.284;2023-02-19T00:40:44;116.13;;;65.70;;
67508;SDS011;54354;44.724;11.284;2023-02-19T00:43:10;101.90;;;61.65;;
67508;SDS011;54354;44.724;11.284;2023-02-19T00:45:35;105.97;;;64.05;;
67508;SDS011;54354;44.724;11.284;2023-02-19T00:48:01;107.90;;;63.33;;
67508;SDS011;54354;44.724;11.284;2023-02-19T00:50:26;102.70;;;62.88;;
67508;SDS011;54354;44.724;11.284;2023-02-19T00:52:51;103.78;;;63.47;;
67508;SDS011;54354;44.724;11.284;2023-02-19T00:55:17;108.13;;;63.67;;
67508;SDS011;54354;44.724;11.284;2023-02-19T00:57:42;108.38;;;64.10;;
67508;SDS011;54354;44.724;11.284;2023-02-19T01:00:08;99.22;;;61.50;;
67508;SDS011;54354;44.724;11.284;2023-02-19T01:02:34;106.25;;;62.20;;
67508;SDS011;54354;44.724;11.284;2023-02-19T01:05:00;100.07;;;60.50;;
67508;SDS011;54354;44.724;11.284;2023-02-19T01:07:25;95.75;;;58.88;;
67508;SDS011;54354;44.724;11.284;2023-02-19T01:09:51;93.05;;;57.30;;
67508;SDS011;54354;44.724;11.284;2023-02-19T01:12:16;92.05;;;56.72;;
67508;SDS011;54354;44.724;11.284;2023-02-19T01:14:42;90.40;;;56.13;;
67508;SDS011;54354;44.724;11.284;2023-02-19T01:17:07;86.68;;;54.42;;
67508;SDS011;54354;44.724;11.284;2023-02-19T01:19:34;83.15;;;52.75;;
67508;SDS011;54354;44.724;11.284;2023-02-19T01:21:59;92.32;;;56.92;;
67508;SDS011;54354;44.724;11.284;2023-02-19T01:24:25;94.82;;;56.67;;
67508;SDS011;54354;44.724;11.284;2023-02-19T01:26:50;90.22;;;58.63;;
67508;SDS011;54354;44.724;11.284;2023-02-19T01:29:16;88.90;;;55.45;;
67508;SDS011;54354;44.724;11.284;2023-02-19T01:31:41;96.45;;;59.50;;
67508;SDS011;54354;44.724;11.284;2023-02-19T01:34:08;87.88;;;56.53;;
67508;SDS011;54354;44.724;11.284;2023-02-19T01:36:36;92.22;;;57.78;;
67508;SDS011;54354;44.724;11.284;2023-02-19T01:39:02;94.03;;;58.53;;
67508;SDS011;54354;44.724;11.284;2023-02-19T01:41:30;91.88;;;56.50;;
67508;SDS011;54354;44.724;11.284;2023-02-19T01:46:43;80.57;;;51.35;;
67508;SDS011;54354;44.724;11.284;2023-02-19T01:49:17;78.40;;;50.33;;
67508;SDS011;54354;44.724;11.284;2023-02-19T01:51:48;71.40;;;47.42;;
67508;SDS011;54354;44.724;11.284;2023-02-19T01:54:19;66.10;;;46.08;;
67508;SDS011;54354;44.724;11.284;2023-02-19T01:56:46;52.55;;;40.25;;
67508;SDS011;54354;44.724;11.284;2023-02-19T01:59:14;58.35;;;43.75;;
67508;SDS011;54354;44.724;11.284;2023-02-19T02:01:41;59.17;;;42.92;;
67508;SDS011;54354;44.724;11.284;2023-02-19T02:04:07;57.63;;;41.45;;
67508;SDS011;54354;44.724;11.284;2023-02-19T02:06:45;47.60;;;37.75;;
67508;SDS011;54354;44.724;11.284;2023-02-19T02:09:15;47.80;;;38.13;;
67508;SDS011;54354;44.724;11.284;2023-02-19T02:12:01;44.67;;;35.75;;
67508;SDS011;54354;44.724;11.284;2023-02-19T02:14:28;43.60;;;36.22;;
67508;SDS011;54354;44.724;11.284;2023-02-19T02:17:11;39.35;;;33.20;;
67508;SDS011;54354;44.724;11.284;2023-02-19T02:20:16;38.70;;;34.45;;
67508;SDS011;54354;44.724;11.284;2023-02-19T02:25:50;39.50;;;33.85;;
67508;SDS011;54354;44.724;11.284;2023-02-19T02:36:30;37.90;;;33.90;;
67508;SDS011;54354;44.724;11.284;2023-02-19T02:39:01;38.30;;;34.33;;
67508;SDS011;54354;44.724;11.284;2023-02-19T02:41:31;41.22;;;35.60;;
67508;SDS011;54354;44.724;11.284;2023-02-19T02:43:57;39.60;;;35.33;;
67508;SDS011;54354;44.724;11.284;2023-02-19T02:46:28;38.15;;;33.95;;
67508;SDS011;54354;44.724;11.284;2023-02-19T02:49:00;35.85;;;32.15;;
67508;SDS011;54354;44.724;11.284;2023-02-19T02:51:37;35.70;;;32.08;;
67508;SDS011;54354;44.724;11.284;2023-02-19T02:54:20;32.90;;;29.67;;
67508;SDS011;54354;44.724;11.284;2023-02-19T02:57:11;32.85;;;29.48;;
67508;SDS011;54354;44.724;11.284;2023-02-19T02:59:44;32.72;;;29.33;;
67508;SDS011;54354;44.724;11.284;2023-02-19T03:08:05;34.40;;;30.83;;
67508;SDS011;54354;44.724;11.284;2023-02-19T03:13:10;33.25;;;29.85;;
67508;SDS011;54354;44.724;11.284;2023-02-19T03:16:04;33.80;;;30.30;;
67508;SDS011;54354;44.724;11.284;2023-02-19T03:18:58;32.55;;;29.25;;
67508;SDS011;54354;44.724;11.284;2023-02-19T03:22:30;32.05;;;28.95;;
67508;SDS011;54354;44.724;11.284;2023-02-19T03:24:42;32.08;;;28.85;;
67508;SDS011;54354;44.724;11.284;2023-02-19T03:27:32;31.45;;;28.45;;
67508;SDS011;54354;44.724;11.284;2023-02-19T03:30:00;32.05;;;28.90;;
67508;SDS011;54354;44.724;11.284;2023-02-19T03:32:32;31.20;;;28.15;;
67508;SDS011;54354;44.724;11.284;2023-02-19T03:35:10;32.50;;;29.23;;
67508;SDS011;54354;44.724;11.284;2023-02-19T03:37:44;36.60;;;32.90;;
67508;SDS011;54354;44.724;11.284;2023-02-19T03:40:15;35.75;;;31.98;;
67508;SDS011;54354;44.724;11.284;2023-02-19T03:48:32;35.60;;;32.00;;
67508;SDS011;54354;44.724;11.284;2023-02-19T03:51:05;35.65;;;32.10;;
67508;SDS011;54354;44.724;11.284;2023-02-19T03:56:44;35.28;;;31.52;;
67508;SDS011;54354;44.724;11.284;2023-02-19T03:59:19;33.50;;;29.92;;
67508;SDS011;54354;44.724;11.284;2023-02-19T04:01:54;34.30;;;30.60;;
67508;SDS011;54354;44.724;11.284;2023-02-19T04:06:52;37.85;;;32.22;;
67508;SDS011;54354;44.724;11.284;2023-02-19T04:09:20;36.65;;;32.17;;
67508;SDS011;54354;44.724;11.284;2023-02-19T04:11:52;38.30;;;33.58;;
67508;SDS011;54354;44.724;11.284;2023-02-19T04:14:24;38.13;;;33.42;;
67508;SDS011;54354;44.724;11.284;2023-02-19T04:16:52;38.55;;;33.53;;
67508;SDS011;54354;44.724;11.284;2023-02-19T04:19:23;41.15;;;34.72;;
67508;SDS011;54354;44.724;11.284;2023-02-19T04:21:51;38.45;;;34.25;;
67508;SDS011;54354;44.724;11.284;2023-02-19T04:24:22;40.72;;;34.80;;
67508;SDS011;54354;44.724;11.284;2023-02-19T04:26:52;41.55;;;34.75;;
67508;SDS011;54354;44.724;11.284;2023-02-19T04:29:19;42.92;;;35.00;;
67508;SDS011;54354;44.724;11.284;2023-02-19T04:31:44;42.83;;;36.80;;
67508;SDS011;54354;44.724;11.284;2023-02-19T04:34:10;42.65;;;36.28;;
67508;SDS011;54354;44.724;11.284;2023-02-19T04:36:35;44.60;;;36.60;;
67508;SDS011;54354;44.724;11.284;2023-02-19T04:39:01;44.20;;;36.10;;
67508;SDS011;54354;44.724;11.284;2023-02-19T04:41:26;43.67;;;36.70;;
67508;SDS011;54354;44.724;11.284;2023-02-19T04:43:52;44.42;;;36.92;;
67508;SDS011;54354;44.724;11.284;2023-02-19T04:46:18;45.25;;;37.50;;
67508;SDS011;54354;44.724;11.284;2023-02-19T04:48:43;45.08;;;37.80;;
67508;SDS011;54354;44.724;11.284;2023-02-19T04:51:09;44.83;;;37.22;;
67508;SDS011;54354;44.724;11.284;2023-02-19T04:53:35;47.85;;;37.90;;
67508;SDS011;54354;44.724;11.284;2023-02-19T04:56:05;48.08;;;38.38;;
67508;SDS011;54354;44.724;11.284;2023-02-19T04:58:31;48.38;;;40.08;;
67508;SDS011;54354;44.724;11.284;2023-02-19T05:00:57;51.85;;;39.45;;
67508;SDS011;54354;44.724;11.284;2023-02-19T05:03:22;50.47;;;40.03;;
67508;SDS011;54354;44.724;11.284;2023-02-19T05:05:48;50.72;;;39.78;;
67508;SDS011;54354;44.724;11.284;2023-02-19T05:08:13;49.28;;;40.03;;
67508;SDS011;54354;44.724;11.284;2023-02-19T05:10:39;54.20;;;43.38;;
67508;SDS011;54354;44.724;11.284;2023-02-19T05:13:05;56.03;;;45.45;;
67508;SDS011;54354;44.724;11.284;2023-02-19T05:15:30;53.72;;;43.92;;
67508;SDS011;54354;44.724;11.284;2023-02-19T05:17:56;53.67;;;43.50;;
67508;SDS011;54354;44.724;11.284;2023-02-19T05:20:21;59.38;;;44.85;;
67508;SDS011;54354;44.724;11.284;2023-02-19T05:22:47;57.60;;;45.33;;
67508;SDS011;54354;44.724;11.284;2023-02-19T05:25:12;59.72;;;44.53;;
67508;SDS011;54354;44.724;11.284;2023-02-19T05:27:38;67.57;;;48.08;;
67508;SDS011;54354;44.724;11.284;2023-02-19T05:30:04;67.53;;;48.95;;
67508;SDS011;54354;44.724;11.284;2023-02-19T05:32:30;73.85;;;49.75;;
67508;SDS011;54354;44.724;11.284;2023-02-19T05:34:55;74.07;;;52.58;;
67508;SDS011;54354;44.724;11.284;2023-02-19T05:37:21;76.88;;;53.88;;
67508;SDS011;54354;44.724;11.284;2023-02-19T05:39:47;82.95;;;55.22;;
67508;SDS011;54354;44.724;11.284;2023-02-19T05:42:13;79.00;;;55.15;;
67508;SDS011;54354;44.724;11.284;2023-02-19T05:44:40;91.43;;;58.67;;
67508;SDS011;54354;44.724;11.284;2023-02-19T05:47:06;82.38;;;55.80;;
67508;SDS011;54354;44.724;11.284;2023-02-19T05:49:31;79.40;;;56.53;;
67508;SDS011;54354;44.724;11.284;2023-02-19T05:51:57;82.70;;;57.22;;
67508;SDS011;54354;44.724;11.284;2023-02-19T05:54:22;80.18;;;54.28;;
67508;SDS011;54354;44.724;11.284;2023-02-19T05:56:48;80.05;;;55.10;;
67508;SDS011;54354;44.724;11.284;2023-02-19T05:59:20;67.10;;;49.50;;
67508;SDS011;54354;44.724;11.284;2023-02-19T06:01:48;54.15;;;42.05;;
67508;SDS011;54354;44.724;11.284;2023-02-19T06:04:14;51.97;;;41.15;;
67508;SDS011;54354;44.724;11.284;2023-02-19T06:06:40;52.22;;;40.15;;
67508;SDS011;54354;44.724;11.284;2023-02-19T06:09:06;51.30;;;40.08;;
67508;SDS011;54354;44.724;11.284;2023-02-19T06:11:33;53.25;;;41.25;;
67508;SDS011;54354;44.724;11.284;2023-02-19T06:13:59;48.40;;;39.40;;
67508;SDS011;54354;44.724;11.284;2023-02-19T06:16:24;48.78;;;39.90;;
67508;SDS011;54354;44.724;11.284;2023-02-19T06:18:50;45.88;;;37.75;;
67508;SDS011;54354;44.724;11.284;2023-02-19T06:21:16;45.22;;;37.83;;
67508;SDS011;54354;44.724;11.284;2023-02-19T06:23:42;47.70;;;37.63;;
67508;SDS011;54354;44.724;11.284;2023-02-19T06:28:37;47.50;;;39.00;;
67508;SDS011;54354;44.724;11.284;2023-02-19T06:31:03;49.58;;;39.50;;
67508;SDS011;54354;44.724;11.284;2023-02-19T06:33:30;53.17;;;40.85;;
67508;SDS011;54354;44.724;11.284;2023-02-19T06:35:57;52.17;;;39.15;;
67508;SDS011;54354;44.724;11.284;2023-02-19T06:38:24;49.47;;;38.83;;
67508;SDS011;54354;44.724;11.284;2023-02-19T06:40:49;51.58;;;39.88;;
67508;SDS011;54354;44.724;11.284;2023-02-19T06:43:15;50.72;;;39.83;;
67508;SDS011;54354;44.724;11.284;2023-02-19T06:45:40;60.42;;;44.30;;
67508;SDS011;54354;44.724;11.284;2023-02-19T06:48:06;55.38;;;42.33;;
67508;SDS011;54354;44.724;11.284;2023-02-19T06:50:31;69.00;;;48.15;;
67508;SDS011;54354;44.724;11.284;2023-02-19T06:52:57;69.05;;;48.92;;
67508;SDS011;54354;44.724;11.284;2023-02-19T06:55:22;68.32;;;48.63;;
67508;SDS011;54354;44.724;11.284;2023-02-19T06:57:48;69.20;;;48.60;;
67508;SDS011;54354;44.724;11.284;2023-02-19T07:00:13;67.35;;;48.33;;
67508;SDS011;54354;44.724;11.284;2023-02-19T07:02:39;68.72;;;48.22;;
67508;SDS011;54354;44.724;11.284;2023-02-19T07:05:05;69.68;;;48.95;;
67508;SDS011;54354;44.724;11.284;2023-02-19T07:07:30;68.95;;;48.70;;
67508;SDS011;54354;44.724;11.284;2023-02-19T07:09:56;67.75;;;46.47;;
67508;SDS011;54354;44.724;11.284;2023-02-19T07:12:21;79.60;;;47.05;;
67508;SDS011;54354;44.724;11.284;2023-02-19T07:14:47;73.97;;;47.67;;
67508;SDS011;54354;44.724;11.284;2023-02-19T07:17:12;77.82;;;50.03;;
67508;SDS011;54354;44.724;11.284;2023-02-19T07:19:38;68.72;;;48.22;;
67508;SDS011;54354;44.724;11.284;2023-02-19T07:22:03;63.97;;;46.90;;
67508;SDS011;54354;44.724;11.284;2023-02-19T07:24:29;64.07;;;45.50;;
67508;SDS011;54354;44.724;11.284;2023-02-19T07:26:54;64.38;;;46.40;;
67508;SDS011;54354;44.724;11.284;2023-02-19T07:29:20;59.90;;;42.88;;
67508;SDS011;54354;44.724;11.284;2023-02-19T07:31:45;57.85;;;42.00;;
67508;SDS011;54354;44.724;11.284;2023-02-19T07:34:11;60.55;;;44.40;;
67508;SDS011;54354;44.724;11.284;2023-02-19T07:36:37;61.83;;;43.83;;
67508;SDS011;54354;44.724;11.284;2023-02-19T08:09:41;48.58;;;36.25;;
67508;SDS011;54354;44.724;11.284;2023-02-19T08:12:08;45.78;;;34.67;;
67508;SDS011;54354;44.724;11.284;2023-02-19T08:14:54;48.30;;;34.78;;
67508;SDS011;54354;44.724;11.284;2023-02-19T08:17:20;45.22;;;32.67;;
67508;SDS011;54354;44.724;11.284;2023-02-19T08:19:46;43.10;;;31.85;;
67508;SDS011;54354;44.724;11.284;2023-02-19T08:22:11;42.50;;;31.92;;
67508;SDS011;54354;44.724;11.284;2023-02-19T08:24:37;43.95;;;32.38;;
67508;SDS011;54354;44.724;11.284;2023-02-19T08:27:06;41.33;;;30.77;;
67508;SDS011;54354;44.724;11.284;2023-02-19T08:29:33;42.40;;;30.15;;
67508;SDS011;54354;44.724;11.284;2023-02-19T08:31:59;46.88;;;31.85;;
67508;SDS011;54354;44.724;11.284;2023-02-19T08:34:24;48.15;;;33.30;;
67508;SDS011;54354;44.724;11.284;2023-02-19T08:36:50;50.03;;;33.22;;
67508;SDS011;54354;44.724;11.284;2023-02-19T08:39:15;51.80;;;34.13;;
67508;SDS011;54354;44.724;11.284;2023-02-19T08:41:41;50.50;;;34.85;;
67508;SDS011;54354;44.724;11.284;2023-02-19T08:44:06;55.50;;;37.42;;
67508;SDS011;54354;44.724;11.284;2023-02-19T08:46:32;56.53;;;37.22;;
67508;SDS011;54354;44.724;11.284;2023-02-19T08:48:57;53.50;;;37.33;;
67508;SDS011;54354;44.724;11.284;2023-02-19T08:51:23;55.72;;;37.08;;
67508;SDS011;54354;44.724;11.284;2023-02-19T08:53:48;61.72;;;38.58;;
67508;SDS011;54354;44.724;11.284;2023-02-19T08:56:14;57.13;;;39.10;;
67508;SDS011;54354;44.724;11.284;2023-02-19T08:58:41;63.47;;;39.03;;
67508;SDS011;54354;44.724;11.284;2023-02-19T09:01:12;53.80;;;37.78;;
67508;SDS011;54354;44.724;11.284;2023-02-19T09:03:39;55.28;;;37.72;;
67508;SDS011;54354;44.724;11.284;2023-02-19T09:06:05;58.90;;;38.90;;
67508;SDS011;54354;44.724;11.284;2023-02-19T09:08:31;58.45;;;37.72;;
67508;SDS011;54354;44.724;11.284;2023-02-19T09:10:58;75.55;;;37.30;;
67508;SDS011;54354;44.724;11.284;2023-02-19T09:13:24;59.00;;;38.00;;
67508;SDS011;54354;44.724;11.284;2023-02-19T09:15:50;58.08;;;35.83;;
67508;SDS011;54354;44.724;11.284;2023-02-19T09:18:15;56.72;;;37.30;;
67508;SDS011;54354;44.724;11.284;2023-02-19T09:20:41;93.90;;;38.08;;
67508;SDS011;54354;44.724;11.284;2023-02-19T09:23:06;51.88;;;35.47;;
67508;SDS011;54354;44.724;11.284;2023-02-19T09:25:35;54.53;;;35.10;;
67508;SDS011;54354;44.724;11.284;2023-02-19T09:28:01;51.28;;;35.58;;
67508;SDS011;54354;44.724;11.284;2023-02-19T09:30:26;52.50;;;33.47;;
67508;SDS011;54354;44.724;11.284;2023-02-19T09:32:52;51.85;;;32.80;;
67508;SDS011;54354;44.724;11.284;2023-02-19T09:35:18;46.55;;;31.00;;
67508;SDS011;54354;44.724;11.284;2023-02-19T09:37:43;50.67;;;32.03;;
67508;SDS011;54354;44.724;11.284;2023-02-19T09:40:09;50.78;;;31.60;;
67508;SDS011;54354;44.724;11.284;2023-02-19T09:42:34;42.75;;;30.08;;
67508;SDS011;54354;44.724;11.284;2023-02-19T09:45:00;49.13;;;32.42;;
67508;SDS011;54354;44.724;11.284;2023-02-19T09:47:29;47.58;;;30.27;;
67508;SDS011;54354;44.724;11.284;2023-02-19T09:49:58;42.38;;;29.00;;
67508;SDS011;54354;44.724;11.284;2023-02-19T09:55:02;44.58;;;27.90;;
67508;SDS011;54354;44.724;11.284;2023-02-19T09:57:37;45.55;;;29.15;;
67508;SDS011;54354;44.724;11.284;2023-02-19T10:00:05;35.55;;;25.63;;
67508;SDS011;54354;44.724;11.284;2023-02-19T10:02:42;37.08;;;25.63;;
67508;SDS011;54354;44.724;11.284;2023-02-19T10:05:11;41.25;;;25.27;;
67508;SDS011;54354;44.724;11.284;2023-02-19T10:07:39;40.83;;;24.50;;
67508;SDS011;54354;44.724;11.284;2023-02-19T10:12:39;34.00;;;21.95;;
67508;SDS011;54354;44.724;11.284;2023-02-19T10:17:49;27.40;;;20.15;;
67508;SDS011;54354;44.724;11.284;2023-02-19T10:20:15;32.38;;;21.30;;
67508;SDS011;54354;44.724;11.284;2023-02-19T10:22:44;27.10;;;18.83;;
67508;SDS011;54354;44.724;11.284;2023-02-19T10:25:13;28.13;;;20.05;;
67508;SDS011;54354;44.724;11.284;2023-02-19T10:27:40;25.90;;;19.00;;
67508;SDS011;54354;44.724;11.284;2023-02-19T10:30:09;27.92;;;19.00;;
67508;SDS011;54354;44.724;11.284;2023-02-19T10:32:57;27.73;;;18.92;;
67508;SDS011;54354;44.724;11.284;2023-02-19T10:35:24;26.48;;;17.60;;
67508;SDS011;54354;44.724;11.284;2023-02-19T10:37:50;23.52;;;15.45;;
67508;SDS011;54354;44.724;11.284;2023-02-19T10:40:17;20.83;;;15.68;;
67508;SDS011;54354;44.724;11.284;2023-02-19T10:43:03;22.73;;;16.02;;
67508;SDS011;54354;44.724;11.284;2023-02-19T10:48:20;20.80;;;13.85;;
67508;SDS011;54354;44.724;11.284;2023-02-19T10:50:51;21.00;;;12.95;;
67508;SDS011;54354;44.724;11.284;2023-02-19T10:53:23;16.67;;;12.07;;
67508;SDS011;54354;44.724;11.284;2023-02-19T10:56:09;16.58;;;11.90;;
67508;SDS011;54354;44.724;11.284;2023-02-19T10:58:38;15.63;;;12.77;;
67508;SDS011;54354;44.724;11.284;2023-02-19T11:01:14;17.83;;;13.55;;
67508;SDS011;54354;44.724;11.284;2023-02-19T11:03:49;19.08;;;14.32;;
67508;SDS011;54354;44.724;11.284;2023-02-19T11:06:20;24.05;;;15.30;;
67508;SDS011;54354;44.724;11.284;2023-02-19T11:11:37;21.55;;;14.15;;
67508;SDS011;54354;44.724;11.284;2023-02-19T11:14:20;20.42;;;13.27;;
67508;SDS011;54354;44.724;11.284;2023-02-19T11:16:48;18.52;;;12.82;;
67508;SDS011;54354;44.724;11.284;2023-02-19T11:19:21;14.95;;;11.98;;
67508;SDS011;54354;44.724;11.284;2023-02-19T11:21:53;16.35;;;12.00;;
67508;SDS011;54354;44.724;11.284;2023-02-19T11:24:40;14.30;;;11.57;;
67508;SDS011;54354;44.724;11.284;2023-02-19T11:27:05;16.33;;;11.35;;
67508;SDS011;54354;44.724;11.284;2023-02-19T11:29:39;15.48;;;11.00;;
67508;SDS011;54354;44.724;11.284;2023-02-19T11:34:50;17.27;;;12.02;;
67508;SDS011;54354;44.724;11.284;2023-02-19T11:37:17;13.50;;;10.95;;
67508;SDS011;54354;44.724;11.284;2023-02-19T11:39:48;13.00;;;10.73;;
67508;SDS011;54354;44.724;11.284;2023-02-19T11:42:23;16.23;;;12.13;;
67508;SDS011;54354;44.724;11.284;2023-02-19T11:53:00;15.77;;;11.90;;
67508;SDS011;54354;44.724;11.284;2023-02-19T12:01:17;12.88;;;10.55;;
67508;SDS011;54354;44.724;11.284;2023-02-19T12:04:05;16.77;;;11.18;;
67508;SDS011;54354;44.724;11.284;2023-02-19T12:07:14;18.60;;;12.05;;
67508;SDS011;54354;44.724;11.284;2023-02-19T12:09:52;16.35;;;12.43;;
67508;SDS011;54354;44.724;11.284;2023-02-19T12:12:35;17.15;;;11.93;;
67508;SDS011;54354;44.724;11.284;2023-02-19T12:40:16;16.73;;;12.75;;
67508;SDS011;54354;44.724;11.284;2023-02-19T12:45:32;18.15;;;12.75;;
67508;SDS011;54354;44.724;11.284;2023-02-19T12:48:12;16.73;;;12.23;;
67508;SDS011;54354;44.724;11.284;2023-02-19T12:50:44;15.50;;;12.43;;
67508;SDS011;54354;44.724;11.284;2023-02-19T12:53:20;15.67;;;13.07;;
67508;SDS011;54354;44.724;11.284;2023-02-19T12:56:04;17.10;;;12.50;;
67508;SDS011;54354;44.724;11.284;2023-02-19T12:58:55;16.27;;;13.02;;
67508;SDS011;54354;44.724;11.284;2023-02-19T13:01:27;17.33;;;13.30;;
67508;SDS011;54354;44.724;11.284;2023-02-19T13:06:45;11.30;;;10.10;;
67508;SDS011;54354;44.724;11.284;2023-02-19T13:09:28;9.57;;;8.57;;
67508;SDS011;54354;44.724;11.284;2023-02-19T13:14:59;10.10;;;8.70;;
67508;SDS011;54354;44.724;11.284;2023-02-19T13:17:44;12.02;;;9.93;;
67508;SDS011;54354;44.724;11.284;2023-02-19T13:20:23;14.02;;;8.95;;
67508;SDS011;54354;44.724;11.284;2023-02-19T13:26:05;13.38;;;9.13;;
67508;SDS011;54354;44.724;11.284;2023-02-19T13:37:12;11.90;;;10.55;;
67508;SDS011;54354;44.724;11.284;2023-02-19T13:39:48;14.95;;;10.02;;
67508;SDS011;54354;44.724;11.284;2023-02-19T13:42:23;11.35;;;10.02;;
67508;SDS011;54354;44.724;11.284;2023-02-19T13:44:55;16.23;;;10.65;;
67508;SDS011;54354;44.724;11.284;2023-02-19T13:50:21;11.60;;;10.40;;
67508;SDS011;54354;44.724;11.284;2023-02-19T13:52:47;12.70;;;10.82;;
67508;SDS011;54354;44.724;11.284;2023-02-19T14:00:59;12.95;;;10.52;;
67508;SDS011;54354;44.724;11.284;2023-02-19T14:03:45;15.43;;;11.52;;
67508;SDS011;54354;44.724;11.284;2023-02-19T14:06:18;15.48;;;11.27;;
67508;SDS011;54354;44.724;11.284;2023-02-19T14:08:45;13.15;;;11.25;;
67508;SDS011;54354;44.724;11.284;2023-02-19T14:11:14;13.95;;;11.60;;
67508;SDS011;54354;44.724;11.284;2023-02-19T14:19:02;14.48;;;11.52;;
67508;SDS011;54354;44.724;11.284;2023-02-19T14:21:38;14.75;;;11.50;;
67508;SDS011;54354;44.724;11.284;2023-02-19T14:24:05;16.05;;;11.43;;
67508;SDS011;54354;44.724;11.284;2023-02-19T14:26:35;15.40;;;11.55;;
67508;SDS011;54354;44.724;11.284;2023-02-19T14:29:02;14.35;;;11.27;;
67508;SDS011;54354;44.724;11.284;2023-02-19T14:31:35;15.43;;;11.73;;
67508;SDS011;54354;44.724;11.284;2023-02-19T14:34:03;15.68;;;11.35;;
67508;SDS011;54354;44.724;11.284;2023-02-19T14:39:05;14.23;;;10.95;;
67508;SDS011;54354;44.724;11.284;2023-02-19T14:41:36;16.17;;;11.45;;
67508;SDS011;54354;44.724;11.284;2023-02-19T14:44:05;13.45;;;11.68;;
67508;SDS011;54354;44.724;11.284;2023-02-19T14:46:47;18.38;;;12.20;;
67508;SDS011;54354;44.724;11.284;2023-02-19T14:51:49;14.38;;;11.65;;
67508;SDS011;54354;44.724;11.284;2023-02-19T14:54:19;14.70;;;11.98;;
67508;SDS011;54354;44.724;11.284;2023-02-19T14:56:54;13.25;;;11.43;;
67508;SDS011;54354;44.724;11.284;2023-02-19T14:59:25;15.15;;;11.30;;
67508;SDS011;54354;44.724;11.284;2023-02-19T15:01:53;13.20;;;11.43;;
67508;SDS011;54354;44.724;11.284;2023-02-19T15:04:24;13.73;;;11.38;;
67508;SDS011;54354;44.724;11.284;2023-02-19T15:07:12;20.95;;;16.92;;
67508;SDS011;54354;44.724;11.284;2023-02-19T15:09:43;18.23;;;16.27;;
67508;SDS011;54354;44.724;11.284;2023-02-19T15:12:17;18.80;;;12.73;;
67508;SDS011;54354;44.724;11.284;2023-02-19T15:14:46;16.38;;;12.40;;
67508;SDS011;54354;44.724;11.284;2023-02-19T15:17:15;15.13;;;12.30;;
67508;SDS011;54354;44.724;11.284;2023-02-19T15:19:53;13.20;;;11.80;;
67508;SDS011;54354;44.724;11.284;2023-02-19T15:22:21;18.00;;;12.35;;
67508;SDS011;54354;44.724;11.284;2023-02-19T15:24:49;15.27;;;12.18;;
67508;SDS011;54354;44.724;11.284;2023-02-19T15:27:16;15.93;;;12.05;;
67508;SDS011;54354;44.724;11.284;2023-02-19T15:29:48;17.42;;;12.93;;
67508;SDS011;54354;44.724;11.284;2023-02-19T15:32:16;18.33;;;12.70;;
67508;SDS011;54354;44.724;11.284;2023-02-19T15:37:42;18.38;;;12.45;;
67508;SDS011;54354;44.724;11.284;2023-02-19T15:40:11;17.73;;;13.85;;
67508;SDS011;54354;44.724;11.284;2023-02-19T15:42:38;16.23;;;13.23;;
67508;SDS011;54354;44.724;11.284;2023-02-19T15:47:40;17.55;;;12.60;;
67508;SDS011;54354;44.724;11.284;2023-02-19T15:53:07;16.27;;;13.30;;
67508;SDS011;54354;44.724;11.284;2023-02-19T15:55:39;16.23;;;13.10;;
67508;SDS011;54354;44.724;11.284;2023-02-19T15:58:07;18.45;;;13.20;;
67508;SDS011;54354;44.724;11.284;2023-02-19T16:03:21;18.25;;;14.30;;
67508;SDS011;54354;44.724;11.284;2023-02-19T16:10:54;17.23;;;14.45;;
67508;SDS011;54354;44.724;11.284;2023-02-19T16:13:22;20.08;;;14.70;;
67508;SDS011;54354;44.724;11.284;2023-02-19T16:15:56;20.02;;;15.32;;
67508;SDS011;54354;44.724;11.284;2023-02-19T16:21:09;17.83;;;14.05;;
67508;SDS011;54354;44.724;11.284;2023-02-19T16:23:35;20.27;;;15.30;;
67508;SDS011;54354;44.724;11.284;2023-02-19T16:26:06;21.30;;;15.65;;
67508;SDS011;54354;44.724;11.284;2023-02-19T16:28:35;19.00;;;14.13;;
67508;SDS011;54354;44.724;11.284;2023-02-19T16:31:06;17.90;;;14.32;;
67508;SDS011;54354;44.724;11.284;2023-02-19T16:41:32;27.95;;;16.80;;
67508;SDS011;54354;44.724;11.284;2023-02-19T16:46:48;25.25;;;16.17;;
67508;SDS011;54354;44.724;11.284;2023-02-19T16:49:14;26.33;;;19.33;;
67508;SDS011;54354;44.724;11.284;2023-02-19T16:51:40;25.25;;;19.10;;
67508;SDS011;54354;44.724;11.284;2023-02-19T16:54:08;25.45;;;18.02;;
67508;SDS011;54354;44.724;11.284;2023-02-19T16:56:34;24.23;;;19.08;;
67508;SDS011;54354;44.724;11.284;2023-02-19T16:58:59;26.50;;;19.63;;
67508;SDS011;54354;44.724;11.284;2023-02-19T17:01:25;26.30;;;18.45;;
67508;SDS011;54354;44.724;11.284;2023-02-19T17:03:51;31.83;;;19.58;;
67508;SDS011;54354;44.724;11.284;2023-02-19T17:06:21;26.52;;;19.15;;
67508;SDS011;54354;44.724;11.284;2023-02-19T17:08:47;26.33;;;19.50;;
67508;SDS011;54354;44.724;11.284;2023-02-19T17:11:13;24.52;;;19.35;;
67508;SDS011;54354;44.724;11.284;2023-02-19T17:13:41;26.85;;;20.08;;
67508;SDS011;54354;44.724;11.284;2023-02-19T17:16:08;27.10;;;20.25;;
67508;SDS011;54354;44.724;11.284;2023-02-19T17:18:40;27.20;;;21.30;;
67508;SDS011;54354;44.724;11.284;2023-02-19T17:21:14;28.13;;;20.88;;
67508;SDS011;54354;44.724;11.284;2023-02-19T17:23:42;26.88;;;21.67;;
67508;SDS011;54354;44.724;11.284;2023-02-19T17:26:14;27.52;;;20.77;;
67508;SDS011;54354;44.724;11.284;2023-02-19T17:28:41;31.08;;;20.75;;
67508;SDS011;54354;44.724;11.284;2023-02-19T17:31:07;31.67;;;22.13;;
67508;SDS011;54354;44.724;11.284;2023-02-19T17:33:34;31.20;;;23.75;;
67508;SDS011;54354;44.724;11.284;2023-02-19T17:36:00;33.90;;;23.15;;
67508;SDS011;54354;44.724;11.284;2023-02-19T17:38:26;35.22;;;24.13;;